富山空港の過去48時間の天気

富山空港 (Toyama)

現在時刻: 7/5 13:13 JST (7/5 04:13 UTC) 以下の時間は現地時間です。

過去48時間のMETAR気象情報
時間 風向 風速(m/s) 視程 気温(℃) 湿度(%) 気圧(hPa) 天気現象
5 13:00 3 10km以上 31 59 1006 弱いしゅう雨
5 12:00 4 10km以上 30 62 1006 周辺でしゅう雨
5 11:00 4 10km以上 29 62 1007 弱いしゅう雨
5 10:00 2 10km以上 30 59 1007 周辺でしゅう雨
5 09:00 3 10km以上 29 62 1007 弱いしゅう雨
5 08:00 南東 2 10km以上 29 62 1008
5 07:00 2 10km以上 27 66 1008
5 06:10 2 10km以上 27 66 1008
4 21:00 4 10km以上 26 74 1009
4 20:00 南南西 3 10km以上 26 74 1009
4 19:00 2 10km以上 27 74 1008
4 18:00 南南東 2 10km以上 28 66 1008
4 17:00 南南西 3 10km以上 28 66 1008
4 16:00 南南西 3 10km以上 28 70 1008
4 15:00 2 10km以上 27 74 1009 周辺でしゅう雨
4 14:00 3 10km以上 25 89 1009 弱いしゅう雨
4 13:00 3 10km以上 24 89 1010 弱いしゅう雨 もや
4 12:00 3 5000m 24 89 1010 弱いしゅう雨 もや
4 11:39 3 3000m 23 94 1010 しゅう雨 もや
4 11:12 3 2000m 23 89 1010 強いしゅう雨 もや
4 11:00 4 5000m 23 89 1011 しゅう雨 もや
4 10:47 3 2000m 23 89 1011 強いしゅう雨 もや
4 10:28 3 6000m 22 94 1011 しゅう雨 もや
4 10:13 西南西 4 1000m 23 89 1011 強いしゅう雨 もや
4 10:00 南西 6 3000m 23 94 1010 弱いしゅう雨 もや
4 09:00 3 7000m 23 94 1010 弱いしゅう雨
4 08:17 南南東 2 10km以上 23 94 1010 弱いしゅう雨
4 08:00 3 6000m 23 94 1010 強いしゅう雨
4 07:41 4 10km以上 23 94 1010 弱いしゅう雨
4 07:26 3 3000m 23 94 1010 しゅう雨 もや
4 07:13 2 800m 23 94 1010 強いしゅう雨 霧
4 07:06 3 1000m 24 94 1010 しゅう雨 もや
4 06:20 西南西 2 10km以上 24 94 1010 弱いしゅう雨
4 06:10 不定 1 10km以上 24 94 1010 弱い雷雨
RJNT 050400Z 17005KT 100V210 9999 -SHRA FEW030 BKN090 31/22 Q1006
RJNT 050300Z 17008KT 110V210 9999 VCSH FEW030 SCT080 BKN/// 30/22 Q1006
RJNT 050200Z 17008KT 130V200 9999 -SHRA FEW030 SCT100 BKN150 29/21 Q1007
RJNT 050100Z 17004KT 090V240 9999 VCSH FEW030 SCT080 BKN/// 30/21 Q1007
RJNT 050000Z 19006KT 140V210 9999 -SHRA FEW020 SCT080 BKN/// 29/21 Q1007
RJNT 042300Z 13004KT 060V200 9999 FEW020 SCT070 BKN/// 29/21 Q1008
RJNT 042200Z 17004KT 110V220 9999 FEW020 SCT070 BKN/// 27/20 Q1008
RJNT 042110Z 17004KT 100V240 9999 FEW020 SCT070 BKN/// 27/20 Q1008 RMK 1SC020 4AC070 A2977
RJNT 041200Z 19008KT 160V220 9999 FEW020 BKN100 26/21 Q1009
RJNT 041100Z 20006KT 9999 FEW020 BKN100 26/21 Q1009
RJNT 041000Z 18004KT 9999 FEW020 BKN110 27/22 Q1008
RJNT 040900Z 16004KT 110V210 9999 FEW020 BKN090 BKN130 28/21 Q1008
RJNT 040800Z 20005KT 9999 FEW010 FEW020CB BKN120 28/21 Q1008
RJNT 040700Z 20005KT 160V240 9999 FEW010 SCT050 BKN120 28/22 Q1008
RJNT 040600Z 18003KT 140V230 9999 VCSH FEW010 SCT050 BKN120 27/22 Q1009
RJNT 040500Z 19005KT 130V250 9999 -SHRA FEW010 FEW025TCU SCT050 BKN100 25/23 Q1009
RJNT 040400Z 19006KT 150V210 9999 -SHRA BR FEW010 FEW025CB SCT040 BKN060 24/22 Q1010
RJNT 040300Z VRB05KT 5000 -SHRA BR FEW010 FEW025CB BKN050 24/22 Q1010
RJNT 040239Z 09006KT 050V140 3000 SHRA BR FEW010 SCT025TCU BKN050 23/22 Q1010 RMK 1CU010 3TCU025 6SC050 A2985 9999SW-W TCU 10KM N MOV E
RJNT 040212Z VRB05KT 2000 +SHRA BR FEW010 SCT025TCU BKN040 23/21 Q1010 RMK 1CU010 3TCU025 6SC040 A2984 TCU OHD MOV E RI++
RJNT 040200Z 17008KT 120V200 5000 SHRA BR FEW010 SCT025TCU BKN040 23/21 Q1011
RJNT 040147Z 18006KT 120V230 2000 +SHRA BR FEW010 SCT025TCU BKN040 23/21 Q1011 RMK 1CU010 3TCU025 7SC040 A2985 TCU OHD MOV E RI++
RJNT 040128Z 17006KT 120V210 6000 SHRA BR FEW020 SCT025TCU BKN040 22/21 Q1011 RMK 1CU020 3TCU025 7SC040 A2985 2000E-S TCU OHD MOV E
RJNT 040113Z 24007KT 200V280 1000 +SHRA BR FEW020 SCT025TCU BKN040 23/21 Q1011 RMK 1CU020 3TCU025 7SC040 A2986 TCU OHD MOV E RI++
RJNT 040100Z 22012KT 3000 -SHRA BR FEW020 BKN045 23/22 Q1010
RJNT 040000Z 19006KT 7000 -SHRA FEW020 BKN035 23/22 Q1010
RJNT 032317Z 15003KT 060V220 9999 -SHRA FEW005 SCT020 BKN035 23/22 Q1010 RMK 1ST005 3CU020 6SC035 A2983 3000E-S
RJNT 032300Z 18005KT 050V230 6000 +SHRA FEW010 SCT020CB BKN035 23/22 Q1010
RJNT 032241Z 18008KT 140V210 9999 -SHRA FEW010 SCT020CB BKN035 23/22 Q1010 RMK 1CU010 3CB020 6SC035 A2984 CB 10KM E-S MOV E
RJNT 032226Z 18006KT 140V210 3000 SHRA BR FEW010 SCT020CB BKN030 23/22 Q1010 RMK 1CU010 3CB020 6SC030 A2985 CB OHD MOV E
RJNT 032213Z 17004KT 080V220 0800 +SHRA FG FEW020 SCT025CB BKN030 23/22 Q1010 RMK 1CU020 3CB025 6SC030 A2984 CB OHD MOV E RI++
RJNT 032206Z 19006KT 150V220 1000 SHRA BR FEW020 SCT025CB BKN030 24/23 Q1010 RMK 1CU020 3CB025 6SC030 A2984 CB OHD MOV E
RJNT 032120Z 24003KT 9999 -SHRA FEW020 SCT025CB BKN040 24/23 Q1010 RMK 1CU020 3CB025 5SC040 A2983 CB 10KM S MOV E
RJNT 032110Z VRB01KT 9999 -TSRA FEW020 SCT025CB BKN040 24/23 Q1010 RMK 1CU020 3CB025 5SC040 A2982 FBL TS 10KM S MOV E